Time;durP1;ratioP1;P1;durP2;ratioP2;P2;SDS_P1;SDS_P2;PMS_P1;PMS_P2;Temp;Humidity;BMP_temperature;BMP_pressure;BME280_temperature;BME280_humidity;BME280_pressure;Samples;Min_cycle;Max_cycle;Signal;HPM_P1;HPM_P2
2021/11/12 00:04:25;;;;;;;41.85;18.00;;;;;;;0.90;100.00;96304.75;5107454;28;24409;-72
2021/11/12 00:12:39;;;;;;;75.63;15.60;;;;;;;0.43;100.00;96286.75;5106833;28;24434;-72
2021/11/12 00:15:09;;;;;;;30.55;17.58;;;;;;;0.62;100.00;96283.94;5106874;28;24475;-72
2021/11/12 00:17:36;;;;;;;41.17;16.92;;;;;;;0.64;100.00;96282.22;5113718;28;24511;-72
2021/11/12 00:20:04;;;;;;;51.15;16.23;;;;;;;0.68;100.00;96284.69;5127792;27;24508;-72
2021/11/12 00:22:31;;;;;;;35.15;15.77;;;;;;;0.68;100.00;96279.59;5127632;28;24410;-72
2021/11/12 00:25:01;;;;;;;43.45;14.55;;;;;;;0.61;100.00;96278.00;5127450;27;24425;-72
2021/11/12 00:27:29;;;;;;;48.97;13.88;;;;;;;0.44;100.00;96274.84;5127764;27;24421;-72
2021/11/12 00:30:02;;;;;;;26.83;13.35;;;;;;;0.45;100.00;96279.09;5117881;28;24470;-72
2021/11/12 00:32:39;;;;;;;52.78;14.90;;;;;;;0.43;100.00;96278.28;5114028;28;24433;-72
2021/11/12 00:35:12;;;;;;;31.50;13.98;;;;;;;0.48;100.00;96279.91;5113572;28;24445;-72
2021/11/12 00:37:53;;;;;;;46.58;13.25;;;;;;;0.31;100.00;96273.38;5113907;28;24531;-72
2021/11/12 00:40:24;;;;;;;30.88;13.88;;;;;;;0.53;100.00;96271.34;5113598;28;24525;-72
2021/11/12 00:43:08;;;;;;;33.17;13.18;;;;;;;0.70;100.00;96272.75;5113817;28;24841;-72
2021/11/12 00:45:41;;;;;;;33.92;14.00;;;;;;;0.45;100.00;96269.75;5113366;28;24453;-72
2021/11/12 00:48:14;;;;;;;22.67;13.45;;;;;;;0.33;100.00;96272.47;5113454;28;24417;-72
2021/11/12 00:50:58;;;;;;;26.27;12.88;;;;;;;0.53;100.00;96277.28;5113328;28;24429;-72
2021/11/12 00:53:49;;;;;;;25.25;13.35;;;;;;;0.22;100.00;96277.75;5113566;28;24432;-72
2021/11/12 00:56:18;;;;;;;22.73;14.32;;;;;;;0.05;100.00;96271.19;5113192;28;24421;-72
2021/11/12 00:58:45;;;;;;;23.38;15.82;;;;;;;0.01;100.00;96272.09;5113278;28;24437;-72
2021/11/12 01:01:13;;;;;;;21.65;14.13;;;;;;;0.15;100.00;96272.72;5112959;28;24425;-72
2021/11/12 01:03:40;;;;;;;25.52;14.70;;;;;;;0.19;100.00;96271.84;5113412;28;24449;-72
2021/11/12 01:06:06;;;;;;;22.08;14.95;;;;;;;0.22;100.00;96272.66;5112981;28;24445;-72
2021/11/12 01:08:33;;;;;;;22.45;16.08;;;;;;;0.27;100.00;96267.47;5113150;28;24416;-72
2021/11/12 01:11:00;;;;;;;24.17;15.13;;;;;;;0.17;100.00;96271.00;5112951;28;24950;-72
2021/11/12 01:13:28;;;;;;;24.27;15.60;;;;;;;0.03;100.00;96270.34;5112807;28;24421;-72
2021/11/12 01:15:55;;;;;;;38.30;15.60;;;;;;;-0.11;100.00;96265.44;5112801;28;24421;-72
2021/11/12 01:18:21;;;;;;;17.63;14.95;;;;;;;-0.11;100.00;96270.53;5112678;28;24445;-72
2021/11/12 01:20:49;;;;;;;23.42;15.60;;;;;;;-0.02;100.00;96266.16;5112982;28;24430;-72
2021/11/12 01:23:16;;;;;;;23.52;15.95;;;;;;;0.05;100.00;96254.19;5112951;28;24418;-72
2021/11/12 01:25:43;;;;;;;23.58;13.93;;;;;;;0.14;100.00;96254.06;5112523;28;24922;-72
2021/11/12 01:28:09;;;;;;;25.35;14.52;;;;;;;0.30;100.00;96253.81;5112526;27;25019;-72
2021/11/12 01:30:37;;;;;;;33.80;14.07;;;;;;;0.26;100.00;96253.06;5112815;28;24786;-72
2021/11/12 01:33:05;;;;;;;17.98;10.90;;;;;;;0.31;100.00;96250.44;5112646;28;24973;-72
2021/11/12 01:35:33;;;;;;;21.95;11.80;;;;;;;0.36;100.00;96248.66;5112497;28;24413;-72
2021/11/12 01:38:00;;;;;;;72.13;11.07;;;;;;;0.40;100.00;96243.47;5112571;28;24444;-72
2021/11/12 01:40:28;;;;;;;101.30;11.82;;;;;;;0.27;100.00;96244.53;5111957;28;24414;-72
2021/11/12 01:43:00;;;;;;;39.97;10.37;;;;;;;0.27;100.00;96242.00;5112186;28;25111;-72
2021/11/12 01:45:35;;;;;;;107.22;12.85;;;;;;;0.29;100.00;96242.81;5112625;28;24479;-72
2021/11/12 01:48:16;;;;;;;183.20;12.70;;;;;;;0.05;100.00;96238.09;5112420;28;24447;-72
2021/11/12 01:50:45;;;;;;;108.90;11.40;;;;;;;0.18;100.00;96239.56;5112342;28;24512;-72
2021/11/12 01:53:14;;;;;;;130.07;12.00;;;;;;;0.22;100.00;96238.66;5112122;28;24422;-72
2021/11/12 01:55:44;;;;;;;77.85;9.80;;;;;;;0.32;100.00;96237.66;5112222;28;24421;-72
2021/11/12 01:58:26;;;;;;;56.83;11.38;;;;;;;0.43;100.00;96238.34;5112237;28;24437;-72
2021/11/12 02:00:53;;;;;;;21.17;11.02;;;;;;;0.45;100.00;96239.16;5111932;28;24816;-72
2021/11/12 02:03:22;;;;;;;46.13;10.18;;;;;;;0.44;100.00;96244.28;5112148;28;24784;-72
2021/11/12 02:05:48;;;;;;;23.02;9.57;;;;;;;0.47;100.00;96239.13;5112036;28;24470;-72
2021/11/12 02:08:15;;;;;;;29.92;9.95;;;;;;;0.59;100.00;96238.09;5112133;28;24833;-72
2021/11/12 02:10:42;;;;;;;41.88;12.60;;;;;;;0.76;100.00;96240.38;5111807;28;24425;-72
2021/11/12 02:13:12;;;;;;;34.92;12.30;;;;;;;0.55;100.00;96233.91;5111701;28;24973;-72
2021/11/12 02:15:40;;;;;;;41.15;10.90;;;;;;;0.55;100.00;96236.47;5111567;28;24512;-72
2021/11/12 02:18:13;;;;;;;43.60;11.93;;;;;;;0.75;100.00;96229.34;5111369;28;24451;-72
2021/11/12 02:20:53;;;;;;;49.95;11.85;;;;;;;0.65;100.00;96226.09;5111911;28;24422;-72
2021/11/12 02:23:20;;;;;;;38.75;12.90;;;;;;;0.73;100.00;96215.75;5111632;28;24959;-72
2021/11/12 02:25:46;;;;;;;33.60;12.50;;;;;;;0.63;100.00;96219.31;5111333;28;24417;-72
2021/11/12 02:28:16;;;;;;;53.75;12.65;;;;;;;0.37;100.00;96217.22;5111507;28;24416;-72
2021/11/12 02:30:46;;;;;;;36.55;11.80;;;;;;;0.19;100.00;96209.00;5111549;28;24425;-72
2021/11/12 02:33:15;;;;;;;37.05;11.98;;;;;;;0.19;100.00;96209.00;5111465;28;25007;-72
2021/11/12 02:35:57;;;;;;;16.13;10.27;;;;;;;0.36;100.00;96203.63;5111262;28;24424;-72
2021/11/12 02:38:26;;;;;;;36.25;12.27;;;;;;;0.30;100.00;96200.31;5111426;28;24445;-72
2021/11/12 02:40:52;;;;;;;38.78;11.15;;;;;;;0.25;100.00;96192.75;5111166;28;24425;-72
2021/11/12 02:43:19;;;;;;;34.13;10.63;;;;;;;0.02;100.00;96188.03;5111256;28;24413;-72
2021/11/12 02:45:46;;;;;;;31.52;10.05;;;;;;;0.02;100.00;96189.75;5110821;28;24414;-72
2021/11/12 02:48:13;;;;;;;41.65;10.63;;;;;;;0.02;100.00;96182.09;5111235;28;24468;-71
2021/11/12 02:50:40;;;;;;;38.53;9.85;;;;;;;0.03;100.00;96176.97;5111107;28;24425;-72
2021/11/12 02:53:12;;;;;;;38.85;10.18;;;;;;;-0.12;100.00;96180.59;5110862;28;24495;-72
2021/11/12 02:55:40;;;;;;;14.50;10.02;;;;;;;-0.07;100.00;96173.75;5110688;28;24424;-72
2021/11/12 02:58:07;;;;;;;37.13;11.60;;;;;;;-0.07;100.00;96178.84;5111211;28;24421;-72
2021/11/12 03:00:36;;;;;;;22.40;9.87;;;;;;;-0.08;100.00;96173.75;5111142;28;24508;-72
2021/11/12 03:03:03;;;;;;;28.23;10.40;;;;;;;-0.05;100.00;96171.16;5110987;28;25120;-72
2021/11/12 03:05:31;;;;;;;30.58;10.73;;;;;;;-0.09;100.00;96177.16;5110725;28;24417;-72
2021/11/12 03:07:57;;;;;;;16.48;10.07;;;;;;;-0.04;100.00;96170.28;5110999;28;24418;-72
2021/11/12 03:10:24;;;;;;;18.05;10.00;;;;;;;-0.11;100.00;96168.69;5110636;28;24421;-72
2021/11/12 03:12:52;;;;;;;16.98;9.05;;;;;;;0.01;100.00;96163.44;5111082;28;24421;-72
2021/11/12 03:15:19;;;;;;;34.45;10.68;;;;;;;0.26;100.00;96168.13;5110794;28;24413;-72
2021/11/12 03:17:48;;;;;;;22.20;9.88;;;;;;;0.12;100.00;96165.81;5110784;28;24504;-72
2021/11/12 03:20:16;;;;;;;19.70;10.13;;;;;;;-0.12;100.00;96172.09;5110715;28;24499;-72
2021/11/12 03:22:48;;;;;;;17.60;10.25;;;;;;;-0.40;100.00;96166.59;5110726;28;24520;-72
2021/11/12 03:25:23;;;;;;;16.13;9.73;;;;;;;-0.22;100.00;96168.00;5110613;28;24457;-72
2021/11/12 03:28:03;;;;;;;24.95;10.05;;;;;;;-0.41;100.00;96164.88;5110881;28;24513;-72
2021/11/12 03:31:05;;;;;;;18.92;9.45;;;;;;;-0.54;100.00;96165.06;5110693;28;24424;-72
2021/11/12 04:01:34;;;;;;;35.42;10.75;;;;;;;-0.23;100.00;96166.34;5110428;28;24420;-72
2021/11/12 04:04:10;;;;;;;24.17;10.10;;;;;;;-0.15;100.00;96161.97;5110808;28;24954;-72
2021/11/12 04:06:43;;;;;;;10.18;9.02;;;;;;;-0.12;100.00;96159.38;5113932;28;24413;-72
2021/11/12 04:17:36;;;;;;;38.35;10.07;;;;;;;-0.20;100.00;96162.03;5114000;28;24475;-72
2021/11/12 04:49:18;;;;;;;24.52;9.75;;;;;;;-0.25;100.00;96148.56;5093135;28;24825;-71
2021/11/12 05:09:50;;;;;;;17.63;10.40;;;;;;;-0.45;100.00;96148.81;5092807;28;24479;-72
2021/11/12 05:12:42;;;;;;;15.30;9.95;;;;;;;-0.58;100.00;96139.69;5092682;28;24422;-72
2021/11/12 05:46:05;;;;;;;18.33;9.80;;;;;;;-0.67;100.00;96149.97;5091655;28;24540;-71
2021/11/12 05:51:31;;;;;;;18.52;9.63;;;;;;;-0.84;100.00;96138.31;5091966;28;24771;-71
2021/11/12 05:56:43;;;;;;;18.67;11.55;;;;;;;-0.82;100.00;96141.66;5091571;28;24451;-73
2021/11/12 05:59:12;;;;;;;19.02;11.07;;;;;;;-0.82;100.00;96136.56;5091769;28;24438;-73
2021/11/12 06:01:39;;;;;;;12.70;9.68;;;;;;;-0.77;100.00;96131.44;5091942;28;24510;-71
2021/11/12 06:04:07;;;;;;;16.07;10.47;;;;;;;-0.77;100.00;96131.44;5091784;28;24422;-72
2021/11/12 06:06:34;;;;;;;19.02;10.10;;;;;;;-0.67;100.00;96132.16;5091442;28;24426;-71
2021/11/12 06:09:01;;;;;;;15.13;9.65;;;;;;;-0.63;100.00;96129.56;5091521;28;24792;-72
2021/11/12 06:11:28;;;;;;;15.65;9.68;;;;;;;-0.54;100.00;96123.50;5091207;28;24966;-72
2021/11/12 06:13:57;;;;;;;15.00;9.52;;;;;;;-0.58;100.00;96127.78;5091631;28;24444;-71
2021/11/12 06:16:23;;;;;;;21.83;8.97;;;;;;;-0.61;100.00;96122.75;5091080;28;24529;-71
2021/11/12 06:18:50;;;;;;;18.95;9.23;;;;;;;-0.61;100.00;96119.38;5091082;28;24553;-71
2021/11/12 06:21:17;;;;;;;20.35;8.73;;;;;;;-0.75;100.00;96129.72;5091010;28;24422;-71
2021/11/12 06:23:44;;;;;;;19.00;9.50;;;;;;;-0.73;100.00;96120.38;5090839;28;24418;-71
2021/11/12 06:26:10;;;;;;;16.92;9.77;;;;;;;-0.72;100.00;96127.13;5090555;28;24504;-71
2021/11/12 06:28:37;;;;;;;31.83;10.02;;;;;;;-0.71;100.00;96125.44;5090353;28;24426;-71
2021/11/12 06:31:06;;;;;;;23.13;9.73;;;;;;;-0.53;100.00;96132.81;5090546;28;24437;-71
2021/11/12 06:33:32;;;;;;;19.80;10.63;;;;;;;-0.33;100.00;96130.00;5091184;28;24421;-71
2021/11/12 06:35:59;;;;;;;17.52;9.75;;;;;;;-0.47;100.00;96132.75;5090646;28;24417;-72
2021/11/12 06:38:29;;;;;;;15.15;10.60;;;;;;;-0.55;100.00;96134.56;5090961;28;24421;-72
2021/11/12 06:40:56;;;;;;;28.55;10.40;;;;;;;-0.69;100.00;96139.81;5090998;28;24473;-72
2021/11/12 06:43:26;;;;;;;13.23;10.15;;;;;;;-0.80;100.00;96136.56;5091132;28;24414;-72
2021/11/12 06:51:28;;;;;;;16.08;11.00;;;;;;;-0.68;100.00;96133.03;5074876;28;24437;-71
2021/11/12 06:53:55;;;;;;;17.13;10.52;;;;;;;-0.58;100.00;96134.59;5091029;28;24413;-72
2021/11/12 06:56:23;;;;;;;22.48;11.13;;;;;;;-0.58;100.00;96137.97;5090463;28;25012;-71
2021/11/12 06:58:50;;;;;;;14.70;10.75;;;;;;;-0.67;100.00;96132.16;5090763;28;24426;-71
2021/11/12 07:01:17;;;;;;;11.93;10.73;;;;;;;-0.78;100.00;96138.25;5090492;28;24429;-71
2021/11/12 07:03:45;;;;;;;31.52;11.88;;;;;;;-0.74;100.00;96132.25;5090515;28;24554;-72
2021/11/12 07:06:13;;;;;;;18.60;11.30;;;;;;;-0.68;100.00;96140.66;5090540;28;24507;-71
2021/11/12 07:08:40;;;;;;;30.50;12.53;;;;;;;-0.66;100.00;96132.16;5091082;28;24418;-71
2021/11/12 07:11:07;;;;;;;30.73;12.23;;;;;;;-0.67;100.00;96130.44;5090512;28;24434;-72
2021/11/12 07:13:34;;;;;;;31.80;13.13;;;;;;;-0.59;100.00;96131.22;5090597;28;24464;-71
2021/11/12 07:16:00;;;;;;;14.48;11.73;;;;;;;-0.51;100.00;96129.41;5090132;28;24410;-72
2021/11/12 07:18:29;;;;;;;12.88;11.57;;;;;;;-0.45;100.00;96133.53;5090444;28;24453;-71
2021/11/12 07:20:57;;;;;;;48.85;12.23;;;;;;;-0.60;100.00;96129.50;5090576;28;24450;-73
2021/11/12 07:23:26;;;;;;;37.60;16.75;;;;;;;-0.73;100.00;96143.25;5090523;28;24418;-73
2021/11/12 07:25:53;;;;;;;18.20;13.03;;;;;;;-0.55;100.00;96134.56;5090241;28;24796;-72
2021/11/12 07:28:23;;;;;;;17.30;14.70;;;;;;;-0.59;100.00;96138.84;5090326;28;24418;-73
2021/11/12 07:30:50;;;;;;;19.10;11.70;;;;;;;-0.50;100.00;96135.31;5090585;28;25058;-72
2021/11/12 07:33:17;;;;;;;19.20;12.13;;;;;;;-0.34;100.00;96135.94;5090641;28;24421;-71
2021/11/12 07:35:48;;;;;;;37.90;12.23;;;;;;;-0.57;100.00;96134.56;5090193;28;24422;-71
2021/11/12 07:38:20;;;;;;;18.63;11.52;;;;;;;-0.58;100.00;96132.88;5090337;28;24429;-72
2021/11/12 07:41:02;;;;;;;16.83;11.75;;;;;;;-0.43;100.00;96133.53;5093527;28;24503;-72
2021/11/12 07:46:18;;;;;;;12.90;10.23;;;;;;;0.02;100.00;96128.63;5094383;28;24432;-71
2021/11/12 07:48:45;;;;;;;14.20;10.60;;;;;;;0.15;100.00;96123.31;5094488;28;24464;-71
2021/11/12 07:51:12;;;;;;;12.73;10.18;;;;;;;0.39;100.00;96126.31;5094295;28;24982;-71
2021/11/12 07:53:40;;;;;;;18.63;10.10;;;;;;;0.56;100.00;96120.94;5094015;28;24481;-72
2021/11/12 07:56:08;;;;;;;14.10;10.48;;;;;;;0.63;100.00;96117.38;5094065;28;24430;-73
2021/11/12 07:58:34;;;;;;;16.23;10.82;;;;;;;0.68;100.00;96113.88;5094219;28;24425;-71
2021/11/12 08:01:01;;;;;;;15.02;10.40;;;;;;;0.82;100.00;96112.78;5093963;28;24452;-72
2021/11/12 08:03:27;;;;;;;17.55;11.25;;;;;;;1.01;100.00;96110.72;5093799;28;24966;-72
2021/11/12 08:05:54;;;;;;;16.13;12.05;;;;;;;1.00;100.00;96106.47;5093624;28;24433;-71
2021/11/12 08:08:23;;;;;;;18.90;13.63;;;;;;;1.00;100.00;96103.91;5094116;28;24830;-71
2021/11/12 08:10:54;;;;;;;22.08;13.63;;;;;;;0.90;100.00;96098.19;5093997;28;24434;-72
2021/11/12 08:13:30;;;;;;;13.77;12.32;;;;;;;0.93;100.00;96093.88;5093925;28;24518;-72
2021/11/12 08:16:06;;;;;;;18.38;13.65;;;;;;;1.07;100.00;96092.72;5093569;28;24524;-72
2021/11/12 08:21:21;;;;;;;17.83;13.70;;;;;;;1.37;100.00;96096.34;5089734;28;24869;-71
2021/11/12 08:24:02;;;;;;;17.08;13.27;;;;;;;1.37;100.00;96088.69;5093747;28;24454;-72
2021/11/12 08:26:36;;;;;;;17.60;13.30;;;;;;;1.19;100.00;96095.06;5093395;28;24525;-71
2021/11/12 08:29:18;;;;;;;17.52;11.90;;;;;;;1.41;100.00;96101.38;5093387;28;24430;-72
2021/11/12 08:31:54;;;;;;;15.65;12.82;;;;;;;1.72;100.00;96098.13;5093169;28;24422;-73
2021/11/12 08:34:25;;;;;;;16.20;11.68;;;;;;;1.97;100.00;96087.34;5093824;28;24422;-72
2021/11/12 08:37:01;;;;;;;15.70;11.57;;;;;;;2.18;100.00;96086.81;5092791;28;24811;-74
2021/11/12 08:42:12;;;;;;;15.48;12.13;;;;;;;2.72;100.00;96075.22;5108777;28;24575;-74
2021/11/12 08:44:42;;;;;;;18.08;11.68;;;;;;;2.97;100.00;96071.09;5113190;28;24778;-72
2021/11/12 08:47:12;;;;;;;14.70;12.73;;;;;;;3.31;100.00;96068.41;5113490;28;24962;-73
2021/11/12 08:49:40;;;;;;;16.50;12.98;;;;;;;3.53;100.00;96067.75;5113202;27;24829;-74
2021/11/12 08:52:12;;;;;;;27.50;12.95;;;;;;;3.86;100.00;96060.75;5113170;28;24982;-73
2021/11/12 08:54:42;;;;;;;17.27;13.10;;;;;;;4.18;100.00;96059.69;5101480;28;24491;-73
2021/11/12 08:57:11;;;;;;;21.75;13.43;;;;;;;4.22;100.00;96063.00;5101558;28;24440;-72
2021/11/12 08:59:40;;;;;;;18.38;14.25;;;;;;;4.30;100.00;96068.69;5104153;28;24819;-72
2021/11/12 09:02:08;;;;;;;18.53;14.47;;;;;;;4.47;100.00;96056.16;5101462;28;24430;-74
2021/11/12 09:04:35;;;;;;;16.60;13.43;;;;;;;4.38;100.00;96061.59;5102491;28;24438;-73
2021/11/12 09:07:02;;;;;;;24.52;13.82;;;;;;;4.54;100.00;96059.34;5092948;28;24421;-72
2021/11/12 09:09:29;;;;;;;15.20;12.75;;;;;;;4.78;100.00;96057.66;5106546;28;24528;-73
2021/11/12 09:11:56;;;;;;;17.10;13.85;;;;;;;4.85;100.00;96059.09;5112963;28;24950;-73
2021/11/12 09:14:27;;;;;;;20.53;14.33;;;;;;;5.03;100.00;96058.44;5109697;28;24430;-73
2021/11/12 09:16:53;;;;;;;19.33;13.90;;;;;;;5.07;100.00;96057.44;5097382;28;25044;-73
2021/11/12 09:19:20;;;;;;;17.60;13.48;;;;;;;5.13;100.00;96058.97;5093179;28;24417;-74
2021/11/12 09:21:48;;;;;;;16.63;13.63;;;;;;;5.26;100.00;96055.03;5094722;28;24457;-73
2021/11/12 09:24:14;;;;;;;15.60;13.52;;;;;;;5.46;100.00;96058.59;5101096;28;24434;-73
2021/11/12 09:26:42;;;;;;;18.95;14.13;;;;;;;5.22;100.00;96056.03;5102597;27;24436;-74
2021/11/12 09:29:11;;;;;;;17.60;13.18;;;;;;;5.21;100.00;96056.09;5092411;28;24422;-72
2021/11/12 09:31:39;;;;;;;21.13;13.73;;;;;;;5.01;100.00;96064.56;5092018;28;24431;-73
2021/11/12 09:34:10;;;;;;;17.00;14.02;;;;;;;5.36;100.00;96057.25;5104286;28;24438;-73
2021/11/12 09:36:37;;;;;;;20.90;13.60;;;;;;;5.28;100.00;96052.41;5112439;27;24413;-74
2021/11/12 09:39:05;;;;;;;15.60;13.48;;;;;;;5.23;100.00;96051.75;5112107;28;24429;-72
2021/11/12 09:41:32;;;;;;;16.08;12.40;;;;;;;5.28;100.00;96047.28;5109254;28;24457;-74
2021/11/12 09:43:58;;;;;;;14.13;12.60;;;;;;;5.28;100.00;96039.56;5092326;28;24418;-73
2021/11/12 09:46:25;;;;;;;14.05;12.18;;;;;;;5.54;100.00;96041.16;5091786;28;24982;-72
2021/11/12 09:48:53;;;;;;;15.55;12.63;;;;;;;5.74;100.00;96038.63;5092123;28;24418;-72
2021/11/12 09:51:19;;;;;;;13.80;12.15;;;;;;;5.81;100.00;96042.63;5091915;28;24418;-72
2021/11/12 09:53:46;;;;;;;15.50;11.63;;;;;;;5.85;100.00;96043.34;5091908;28;24414;-72
2021/11/12 09:56:12;;;;;;;16.00;11.57;;;;;;;5.63;100.00;96042.53;5091606;28;24433;-73
2021/11/12 09:58:39;;;;;;;15.70;11.13;;;;;;;5.57;100.00;96036.72;5091737;28;24438;-74
2021/11/12 10:01:06;;;;;;;18.67;11.63;;;;;;;5.55;100.00;96037.69;5096737;28;24461;-72
2021/11/12 10:03:34;;;;;;;17.30;12.43;;;;;;;5.33;100.00;96035.09;5107821;28;24512;-72
2021/11/12 10:06:18;;;;;;;12.40;11.20;;;;;;;5.44;100.00;96035.53;5103682;28;24550;-73
2021/11/12 10:08:45;;;;;;;13.85;11.25;;;;;;;5.66;100.00;96030.38;5097566;28;24425;-73
2021/11/12 10:11:19;;;;;;;20.73;11.93;;;;;;;5.54;100.00;96021.44;5111798;28;24421;-73
2021/11/12 10:13:46;;;;;;;16.23;11.82;;;;;;;5.56;100.00;96019.66;5111980;28;24429;-73
2021/11/12 10:16:24;;;;;;;12.13;11.00;;;;;;;5.68;100.00;96017.50;5111543;28;24428;-73
2021/11/12 10:19:17;;;;;;;17.73;12.40;;;;;;;5.80;100.00;96007.56;5111766;28;24425;-73
2021/11/12 10:21:51;;;;;;;14.67;13.10;;;;;;;5.65;100.00;96005.59;5097232;28;24550;-73
2021/11/12 10:24:22;;;;;;;16.05;14.10;;;;;;;5.53;100.00;96011.22;5111828;28;24424;-71
2021/11/12 10:26:52;;;;;;;16.02;14.27;;;;;;;5.57;100.00;96005.91;5111614;28;24525;-71
2021/11/12 10:29:21;;;;;;;16.30;14.35;;;;;;;5.60;100.00;96004.97;5111591;28;24466;-71
2021/11/12 10:31:50;;;;;;;17.93;14.57;;;;;;;5.62;100.00;96002.31;5111387;28;24421;-70
2021/11/12 10:34:19;;;;;;;17.10;14.95;;;;;;;5.64;100.00;96003.94;5111649;28;24444;-70
2021/11/12 10:36:51;;;;;;;20.02;15.85;;;;;;;5.69;100.00;96002.00;5111383;28;24429;-71
2021/11/12 10:39:25;;;;;;;19.17;14.98;;;;;;;5.98;100.00;95988.00;5111510;28;24475;-73
2021/11/12 10:41:52;;;;;;;15.45;13.00;;;;;;;6.19;100.00;95988.88;5111369;28;24449;-73
2021/11/12 10:44:18;;;;;;;14.88;12.48;;;;;;;6.39;100.00;95980.28;5107315;28;24456;-73
2021/11/12 10:46:47;;;;;;;14.98;12.63;;;;;;;6.33;100.00;95972.00;5111008;28;24433;-74
2021/11/12 10:49:31;;;;;;;15.43;12.68;;;;;;;6.46;100.00;95963.69;5111748;28;24413;-73
2021/11/12 10:52:01;;;;;;;13.95;12.48;;;;;;;6.35;100.00;95962.50;5111339;28;24742;-72
2021/11/12 10:54:36;;;;;;;14.52;12.98;;;;;;;6.53;100.00;95959.13;5111025;28;24506;-73
2021/11/12 10:57:04;;;;;;;14.60;11.75;;;;;;;6.69;100.00;95948.97;5111264;28;24482;-73
2021/11/12 10:59:31;;;;;;;16.58;12.32;;;;;;;6.78;100.00;95945.97;5111585;28;24463;-73
2021/11/12 11:01:57;;;;;;;12.68;11.38;;;;;;;6.88;100.00;95946.41;5111048;28;24456;-74
2021/11/12 11:04:25;;;;;;;19.52;12.55;;;;;;;6.86;100.00;95958.50;5110873;28;24955;-73
2021/11/12 11:06:51;;;;;;;13.52;12.10;;;;;;;6.94;100.00;95952.13;5110953;28;24440;-74
2021/11/12 11:09:20;;;;;;;18.67;12.38;;;;;;;6.99;100.00;95954.47;5110899;28;24417;-73
2021/11/12 11:11:49;;;;;;;14.27;12.23;;;;;;;7.03;100.00;95946.53;5111107;28;24835;-75
2021/11/12 11:14:29;;;;;;;16.53;11.70;;;;;;;6.97;100.00;95949.41;5110695;28;24512;-74
2021/11/12 11:16:57;;;;;;;20.33;12.00;;;;;;;6.83;100.00;95946.63;5110813;28;24500;-73
2021/11/12 11:19:34;;;;;;;15.50;11.90;;;;;;;6.90;100.00;95940.28;5110993;28;24513;-73
2021/11/12 11:22:03;;;;;;;17.02;12.55;;;;;;;6.86;100.00;95945.63;5110600;28;25039;-73
2021/11/12 11:24:35;;;;;;;24.02;12.63;;;;;;;6.90;100.00;95935.16;5110706;28;24420;-73
2021/11/12 11:27:03;;;;;;;20.83;14.57;;;;;;;6.95;100.00;95937.50;5111066;28;24420;-73
2021/11/12 11:29:29;;;;;;;16.25;13.57;;;;;;;6.98;100.00;95933.06;5111479;28;24421;-74
2021/11/12 11:31:58;;;;;;;21.88;14.30;;;;;;;7.10;100.00;95933.38;5110712;28;24425;-74
2021/11/12 11:34:25;;;;;;;18.00;14.50;;;;;;;7.15;100.00;95932.25;5110536;28;24420;-73
2021/11/12 11:36:56;;;;;;;19.65;14.35;;;;;;;7.30;100.00;95933.28;5110879;28;24420;-74
2021/11/12 11:39:24;;;;;;;17.92;15.57;;;;;;;7.36;100.00;95925.25;5110887;28;24420;-72
2021/11/12 11:41:52;;;;;;;14.30;12.80;;;;;;;7.43;100.00;95911.19;5110578;28;24813;-71
2021/11/12 11:44:20;;;;;;;15.05;13.45;;;;;;;7.56;100.00;95913.16;5110536;28;24416;-73
2021/11/12 11:46:51;;;;;;;25.83;16.80;;;;;;;7.74;100.00;95912.25;5110393;28;24416;-73
2021/11/12 11:49:19;;;;;;;21.40;17.63;;;;;;;7.78;100.00;95911.19;5111033;28;24441;-72
2021/11/12 11:51:50;;;;;;;22.83;17.83;;;;;;;7.96;100.00;95899.13;5110436;28;24417;-71
2021/11/12 11:54:18;;;;;;;20.52;18.35;;;;;;;8.00;100.00;95896.31;5110732;28;24518;-72
2021/11/12 11:56:47;;;;;;;22.77;18.52;;;;;;;8.19;100.00;95897.97;5110479;28;24498;-71
2021/11/12 11:59:20;;;;;;;24.17;17.85;;;;;;;8.18;100.00;95893.72;5110538;28;24410;-72
2021/11/12 12:01:49;;;;;;;23.67;18.23;;;;;;;8.45;100.00;95896.63;5110508;28;24540;-72
2021/11/12 12:04:30;;;;;;;22.33;17.73;;;;;;;8.50;100.00;95892.09;5110614;28;24409;-71
2021/11/12 12:07:28;;;;;;;18.65;16.77;;;;;;;8.66;100.00;95898.09;5110595;28;21180;-71
2021/11/12 12:09:59;;;;;;;15.85;14.23;;;;;;;8.69;100.00;95894.53;5110295;28;24435;-72
2021/11/12 12:12:48;;;;;;;18.60;14.10;;;;;;;8.66;100.00;95895.50;5110352;28;24479;-71
2021/11/12 12:15:45;;;;;;;16.20;13.57;;;;;;;8.62;100.00;95888.03;5110376;28;20750;-72
2021/11/12 12:18:15;;;;;;;21.15;14.40;;;;;;;8.59;100.00;95883.84;5110262;28;20681;-71
2021/11/12 12:21:06;;;;;;;19.20;15.48;;;;;;;8.57;100.00;95880.53;5110365;28;24982;-72
2021/11/12 12:35:03;;;;;;;24.52;16.17;;;;;;;8.74;100.00;95861.53;5113718;28;20719;-71
2021/11/12 12:41:00;;;;;;;22.85;17.13;;;;;;;8.73;100.00;95855.53;5113884;28;20683;-74
2021/11/12 13:22:48;;;;;;;24.33;18.38;;;;;;;9.23;100.00;95806.31;5112842;28;20691;-71
2021/11/12 13:25:27;;;;;;;28.00;20.13;;;;;;;9.25;100.00;95801.91;5112871;28;20734;-71
2021/11/12 13:28:11;;;;;;;27.50;17.90;;;;;;;9.18;100.00;95796.25;5112906;28;21197;-72
2021/11/12 13:30:39;;;;;;;24.75;19.55;;;;;;;9.28;100.00;95801.75;5113287;28;21020;-72
2021/11/12 13:33:06;;;;;;;26.15;18.63;;;;;;;9.30;100.00;95792.97;5112781;28;20794;-73
2021/11/12 13:35:35;;;;;;;24.10;18.10;;;;;;;9.25;100.00;95795.00;5112621;28;24436;-72
2021/11/12 13:38:05;;;;;;;20.25;17.65;;;;;;;9.32;100.00;95785.13;5112894;28;21141;-72
2021/11/12 13:40:33;;;;;;;23.70;17.80;;;;;;;9.34;100.00;95784.09;5112790;28;20790;-71
2021/11/12 13:43:01;;;;;;;29.75;18.98;;;;;;;9.50;100.00;95783.25;5112728;28;20903;-73
2021/11/12 13:45:30;;;;;;;19.52;17.42;;;;;;;9.36;100.00;95787.44;5112324;28;20782;-72
2021/11/12 13:48:09;;;;;;;24.40;18.43;;;;;;;9.69;100.00;95783.81;5112830;28;20733;-72
2021/11/12 13:50:36;;;;;;;29.02;20.27;;;;;;;9.91;100.00;95786.81;5112598;28;20692;-73
2021/11/12 13:53:04;;;;;;;21.48;18.70;;;;;;;9.82;100.00;95795.09;5112571;28;20756;-73
2021/11/12 13:55:35;;;;;;;20.48;18.27;;;;;;;9.69;100.00;95795.00;5112159;28;20833;-73
2021/11/12 13:58:04;;;;;;;26.23;19.10;;;;;;;9.67;100.00;95785.66;5112493;28;20741;-72
2021/11/12 14:00:31;;;;;;;21.88;16.63;;;;;;;9.81;100.00;95790.84;5112561;28;20786;-72
2021/11/12 14:03:03;;;;;;;20.08;13.30;;;;;;;9.91;100.00;95794.56;5112386;28;20774;-71
2021/11/12 14:05:31;;;;;;;14.82;11.25;;;;;;;9.80;100.00;95801.31;5112014;28;20716;-71
2021/11/12 14:08:08;;;;;;;13.63;12.05;;;;;;;9.66;100.00;95797.75;5112292;28;20761;-72
2021/11/12 14:10:39;;;;;;;13.55;9.90;;;;;;;9.52;100.00;95797.72;5111975;28;20638;-73
2021/11/12 14:13:07;;;;;;;11.77;10.57;;;;;;;9.19;100.00;95803.91;5112308;28;20698;-72
2021/11/12 14:15:39;;;;;;;24.42;15.88;;;;;;;8.99;100.00;95800.81;5111835;28;24433;-73
2021/11/12 14:18:21;;;;;;;20.95;18.17;;;;;;;9.10;100.00;95801.84;5111844;28;24487;-72
2021/11/12 14:20:59;;;;;;;14.65;12.27;;;;;;;8.64;100.00;95817.34;5111605;28;24995;-72
2021/11/12 14:23:31;;;;;;;14.00;11.50;;;;;;;8.27;100.00;95818.44;5112100;28;20746;-72
2021/11/12 14:26:22;;;;;;;13.53;12.10;;;;;;;7.97;100.00;95813.09;5111510;28;20717;-72
2021/11/12 14:28:52;;;;;;;16.67;14.60;;;;;;;7.93;100.00;95816.75;5111801;28;24426;-71
2021/11/12 14:31:44;;;;;;;20.20;17.08;;;;;;;7.94;100.00;95818.44;5111512;28;24421;-73
2021/11/12 14:34:18;;;;;;;18.02;16.13;;;;;;;7.87;100.00;95822.25;5111435;28;24471;-73
2021/11/12 14:36:52;;;;;;;19.83;16.65;;;;;;;7.73;100.00;95826.34;5111388;28;24460;-71
2021/11/12 14:39:36;;;;;;;17.17;15.32;;;;;;;7.81;100.00;95825.97;5111470;28;24436;-71
2021/11/12 14:45:02;;;;;;;16.90;15.05;;;;;;;7.84;100.00;95830.13;5111054;28;24771;-72
2021/11/12 14:47:35;;;;;;;22.70;17.02;;;;;;;7.55;100.00;95822.13;5104893;28;24859;-71
2021/11/12 14:50:07;;;;;;;21.58;16.30;;;;;;;7.37;100.00;95823.88;5110993;28;24553;-74
2021/11/12 14:52:34;;;;;;;19.80;16.85;;;;;;;7.26;100.00;95820.97;5091021;28;24944;-74